Details From CYEK - Arviat
To CYAY - St Anthony
Flight Number -
Tags Decoded
Created
Modified
Stats Distance 1,888 nm / 3,496 km
Max Altitude 0 ft / 0 m
Waypoints 7
Social Downloads 2
Likes 0
Share VATSIM

Download

Looking for another format? Having issues loading an existing format? Contact us
Advertisement - Login to hide

Notes

Decoded

Route

DUVER YMO YKL YWK YZV YNA YAY

ID Type Via Altitude Latitude Longitude Leg Dist Tot Dist Heading (true) Name
O DUVER FIX - 0 ft / 0 m 60.00000˚ -93.00000˚ - 0 nm - -
YMO VOR - 0 ft / 0 m 51.29147˚ -80.60728˚ 668 nm 668 nm 136° / 146° MOOSONEE VOR-DME
YKL VOR - 0 ft / 0 m 54.81444˚ -66.75500˚ 541 nm 1210 nm 62° / 73° SCHEFFERVILLE VOR-DME
YWK VOR - 0 ft / 0 m 52.96000˚ -66.85361˚ 111 nm 1321 nm 182° / 182° WABUSH VOR-DME
YZV VOR - 0 ft / 0 m 50.23211˚ -66.27386˚ 165 nm 1487 nm 172° / 173° SEPT-ILES VOR-DME
YNA VOR - 0 ft / 0 m 50.18361˚ -61.78111˚ 172 nm 1659 nm 89° / 93° NATASH VOR-DME
O YAY VOR - 0 ft / 0 m 51.39389˚ -56.08389˚ 228 nm 1887 nm 69° / 74° ST ANTHONY VOR-DME

Altitude Profile

Advertisement - Login to hide

Weather


0- 5 10 15 20 25 30 35+ Temperature / ° C

Clouds and Precipitation
Forecast for 2018-05-22 00:00 UTC. Updated 4 hours ago

Ground ~20,000 ft ~40,000 ft Winds

CYEK

Details ICAO CYEK (YEK)
Name ARVIAT
Region Canada
Timezone America/Rankin_Inlet (UTC-5.0)
Stats Elevation 32 ft / 10 m (AMSL)
Location 61.094167° -94.070834°
Runways 1
Magnetic Variation 3.172° W

METAR

CYEK 220300Z AUTO 35008KT 9SM OVC017 M06/M08 A3021 RMK SLP231

Decode

TAF

TAF CYEK 212338Z 2200/2212 32010KT P6SM -SN BKN015 OVC040 TEMPO 2200/2212 P6SM NSW SCT015 BKN040 RMK NXT FCST BY 220600Z

Decode

Departure Runways

ID Width Length Bearing (true) Bearing (mag) Surface Threshold Offset Overrun Length
15T 100 ft / 30 m 3,991 ft / 1,216 m 149.03° 152.20° Gravel 0 ft / 0 m 0 ft / 0 m
33T 100 ft / 30 m 3,991 ft / 1,216 m 329.05° 332.22° Gravel 0 ft / 0 m 0 ft / 0 m

CYAY

Details ICAO CYAY (YAY)
Name ST ANTHONY
Region Canada
Timezone America/St_Johns (UTC-2.5)
Stats Elevation 108 ft / 33 m (AMSL)
Location 51.391900° -56.083147°
Runways 1
Magnetic Variation 19.834° W

METAR

CYAY 220300Z AUTO 05013KT 9SM OVC041 00/M02 A2977 RMK SLP083

Decode

TAF

TAF CYAY 220138Z 2202/2214 05008KT P6SM SCT020 BKN070 TEMPO 2202/2206 5SM -SHSN BKN020 BKN070 PROB30 2202/2206 2SM -SHSN FM220600 05012KT P6SM BKN030 BKN070 TEMPO 2206/2208 BKN020 BKN070 FM220800 05012KT P6SM SCT030 SCT070 BECMG 2212/2214 25012G22KT RMK FCST BASED ON AUTO OBS. NXT FCST BY 220800Z

Decode

Destination Runways

ID Width Length Bearing (true) Bearing (mag) Surface Threshold Offset Overrun Length
10 100 ft / 30 m 3,992 ft / 1,217 m 79.79° 99.62° Asphalt 0 ft / 0 m 0 ft / 0 m
28 100 ft / 30 m 3,992 ft / 1,217 m 259.80° 279.63° Asphalt 0 ft / 0 m 0 ft / 0 m